Bath, Illinois
Current Conditions -  °F | °C
As of 8:15 AM on Sunday 25 Jan 2015 (Local Time) from KIJX Reporting Station
Overcast Overcast  
Wind Chill: 35°   Ceiling: 3800
Heat Index: 40°   Visibility: 10mi
Dew Point: 38°   Wind: 6mph
Humidity: 95%   Direction: 70°ENE
Pressure: 29.58"   Gusts: NA
Location:  40.19°N, 90.14°W
Report Text: KIJX 251415Z AUTO 07005KT 10SM BKN038 OVC070 04/04 A2958 RMK AO2 T00420035
Loading
Personal Weather Stations






























Interactive Weather Map New forecast layout! Learn more

10-Day Weather Forecast

Advertisements
Track Severe Weather on mobile